createdAt,value
2018-07-30T00:00:09.094Z,18.23
2018-07-30T00:02:45.128Z,18.03
2018-07-30T00:05:14.325Z,18.07
2018-07-30T00:07:43.516Z,18.08
2018-07-30T00:10:12.684Z,18.15
2018-07-30T00:12:42.243Z,18.14
2018-07-30T00:15:11.922Z,18.21
2018-07-30T00:17:41.087Z,18.25
2018-07-30T00:20:10.587Z,18.26
2018-07-30T00:22:39.758Z,18.44
2018-07-30T00:25:09.822Z,18.23
2018-07-30T00:27:39.211Z,18.08
2018-07-30T00:30:08.864Z,18.07
2018-07-30T00:32:38.184Z,18.01
2018-07-30T00:35:07.570Z,17.96
2018-07-30T00:37:36.749Z,17.94
2018-07-30T00:40:06.175Z,17.88
2018-07-30T00:42:35.366Z,17.68
2018-07-30T00:45:04.680Z,17.51
2018-07-30T00:47:33.851Z,17.38
2018-07-30T00:50:03.412Z,17.43
2018-07-30T00:52:33.020Z,17.44
2018-07-30T00:55:02.213Z,17.64
2018-07-30T00:57:31.630Z,17.68
2018-07-30T01:00:00.808Z,17.70
2018-07-30T01:02:30.101Z,17.79
2018-07-30T01:04:59.274Z,17.81
2018-07-30T01:07:29.216Z,17.91
2018-07-30T01:09:58.656Z,18.07
2018-07-30T01:12:28.261Z,17.92
2018-07-30T01:14:57.403Z,17.80
2018-07-30T01:17:26.736Z,17.78
2018-07-30T01:19:56.116Z,17.62
2018-07-30T01:22:25.799Z,17.30
2018-07-30T01:24:55.311Z,17.26
2018-07-30T01:27:24.758Z,17.08
2018-07-30T01:29:53.906Z,17.02
2018-07-30T01:32:23.094Z,16.97
2018-07-30T01:34:52.654Z,17.02
2018-07-30T01:37:22.139Z,16.92
2018-07-30T01:39:51.300Z,17.07
2018-07-30T01:42:20.455Z,17.16
2018-07-30T01:44:50.063Z,17.05
2018-07-30T01:47:19.238Z,17.14
2018-07-30T01:49:48.791Z,17.00
2018-07-30T01:52:18.015Z,16.91
2018-07-30T01:54:47.225Z,16.86
2018-07-30T01:57:16.376Z,17.02
2018-07-30T01:59:46.227Z,17.02
2018-07-30T02:02:15.787Z,17.17
2018-07-30T02:04:44.959Z,17.04
2018-07-30T02:07:14.411Z,17.12
2018-07-30T02:09:43.655Z,16.87
2018-07-30T02:12:12.834Z,16.85
2018-07-30T02:14:42.033Z,16.81
2018-07-30T02:17:11.174Z,16.75
2018-07-30T02:19:40.338Z,16.51
2018-07-30T02:22:09.511Z,16.53
2018-07-30T02:24:38.683Z,16.71
2018-07-30T02:27:08.848Z,16.80
2018-07-30T02:29:38.890Z,16.87
2018-07-30T02:32:08.895Z,16.90
2018-07-30T02:34:38.383Z,16.73
2018-07-30T02:37:07.848Z,16.62
2018-07-30T02:39:37.248Z,16.71
2018-07-30T02:42:06.420Z,16.54
2018-07-30T02:44:35.859Z,16.45
2018-07-30T02:47:05.059Z,16.45
2018-07-30T02:49:34.222Z,16.39
2018-07-30T02:52:03.399Z,16.48
2018-07-30T02:54:33.399Z,16.43
2018-07-30T02:57:02.642Z,16.42
2018-07-30T02:59:31.851Z,16.46
2018-07-30T03:02:01.015Z,16.43
2018-07-30T03:04:30.470Z,16.41
2018-07-30T03:07:00.306Z,16.50
2018-07-30T03:09:29.585Z,16.37
2018-07-30T03:11:58.650Z,16.45
2018-07-30T03:14:27.825Z,16.43
2018-07-30T03:16:56.986Z,16.23
2018-07-30T03:19:26.158Z,16.17
2018-07-30T03:21:56.138Z,16.10
2018-07-30T03:24:26.135Z,16.17
2018-07-30T03:26:55.794Z,16.17
2018-07-30T03:29:24.954Z,16.08
2018-07-30T03:31:54.395Z,16.27
2018-07-30T03:34:23.903Z,16.25
2018-07-30T03:36:53.074Z,16.33
2018-07-30T03:39:22.444Z,16.33
2018-07-30T03:41:52.023Z,16.32
2018-07-30T03:44:21.528Z,16.37
2018-07-30T03:46:50.719Z,16.46
2018-07-30T03:49:19.895Z,16.58
2018-07-30T03:51:49.062Z,16.43
2018-07-30T03:54:18.355Z,16.38
2018-07-30T03:56:47.540Z,16.45
2018-07-30T03:59:16.710Z,16.61
2018-07-30T04:01:46.567Z,16.62
2018-07-30T04:04:15.726Z,16.63
2018-07-30T04:06:45.282Z,16.57
2018-07-30T04:09:14.463Z,16.50
2018-07-30T04:11:44.058Z,16.53
2018-07-30T04:14:13.338Z,16.51
2018-07-30T04:16:50.212Z,16.64
2018-07-30T04:19:20.440Z,16.78
2018-07-30T04:21:49.939Z,16.85
2018-07-30T04:24:19.119Z,16.93
2018-07-30T04:26:48.610Z,17.13
2018-07-30T04:29:17.783Z,17.22
2018-07-30T04:31:46.951Z,17.30
2018-07-30T04:34:17.104Z,17.50
2018-07-30T04:36:46.287Z,17.75
2018-07-30T04:39:16.919Z,17.84
2018-07-30T04:41:46.547Z,18.03
2018-07-30T04:44:15.728Z,18.01
2018-07-30T04:46:45.000Z,17.98
2018-07-30T04:49:14.225Z,18.10
2018-07-30T04:51:43.331Z,18.28
2018-07-30T04:54:12.522Z,17.93
2018-07-30T04:56:41.668Z,18.00
2018-07-30T04:59:10.847Z,18.29
2018-07-30T05:01:40.638Z,18.45
2018-07-30T05:04:09.825Z,18.55
2018-07-30T05:06:38.996Z,18.58
2018-07-30T05:09:08.935Z,18.58
2018-07-30T05:11:38.093Z,18.67
2018-07-30T05:14:07.307Z,18.80
2018-07-30T05:16:36.712Z,18.83
2018-07-30T05:19:05.923Z,18.88
2018-07-30T05:21:35.115Z,19.09
2018-07-30T05:24:04.302Z,19.26
2018-07-30T05:26:34.094Z,19.39
2018-07-30T05:29:03.310Z,19.51
2018-07-30T05:31:32.818Z,19.72
2018-07-30T05:34:02.265Z,20.10
2018-07-30T05:36:31.675Z,20.24
2018-07-30T05:39:00.859Z,20.43
2018-07-30T05:41:30.040Z,20.67
2018-07-30T05:43:59.274Z,20.81
2018-07-30T05:46:28.670Z,20.86
2018-07-30T05:48:57.907Z,21.06
2018-07-30T05:51:27.106Z,21.42
2018-07-30T05:53:56.254Z,21.69
2018-07-30T05:56:25.443Z,22.37
2018-07-30T05:58:54.598Z,23.78
2018-07-30T06:01:24.203Z,24.88
2018-07-30T06:03:53.362Z,25.65
2018-07-30T06:06:22.553Z,26.32
2018-07-30T06:08:51.731Z,27.11
2018-07-30T06:11:20.898Z,27.91
2018-07-30T06:13:50.072Z,28.38
2018-07-30T06:16:19.326Z,29.47
2018-07-30T06:18:48.776Z,30.07
2018-07-30T06:21:17.971Z,29.86
2018-07-30T06:23:47.224Z,31.25
2018-07-30T06:26:16.489Z,32.11
2018-07-30T06:28:45.948Z,32.28
2018-07-30T06:31:15.283Z,32.51
2018-07-30T06:33:44.761Z,33.40
2018-07-30T06:36:14.359Z,33.20
2018-07-30T06:38:43.566Z,33.39
2018-07-30T06:41:13.063Z,32.71
2018-07-30T06:43:42.238Z,32.88
2018-07-30T06:46:11.455Z,33.05
2018-07-30T06:48:40.793Z,34.11
2018-07-30T06:51:09.983Z,34.49
2018-07-30T06:53:39.174Z,35.30
2018-07-30T06:56:08.367Z,34.77
2018-07-30T06:58:37.827Z,35.67
2018-07-30T07:01:07.247Z,35.76
2018-07-30T07:03:36.424Z,35.58
2018-07-30T07:06:05.628Z,35.17
2018-07-30T07:08:34.787Z,35.66
2018-07-30T07:11:04.620Z,34.40
2018-07-30T07:13:33.807Z,35.56
2018-07-30T07:16:03.014Z,33.58
2018-07-30T07:18:32.218Z,34.03
2018-07-30T07:21:01.447Z,34.74
2018-07-30T07:23:30.839Z,36.88
2018-07-30T07:26:00.252Z,37.30
2018-07-30T07:28:29.796Z,33.50
2018-07-30T07:30:59.315Z,34.80
2018-07-30T07:33:28.527Z,36.80
2018-07-30T07:35:57.715Z,36.14
2018-07-30T07:38:27.194Z,34.74
2018-07-30T07:40:56.404Z,36.34
2018-07-30T07:43:25.863Z,37.85
2018-07-30T07:45:55.163Z,36.92
2018-07-30T07:48:24.359Z,35.81
2018-07-30T07:50:53.749Z,35.76
2018-07-30T07:53:22.963Z,38.19
2018-07-30T07:55:52.162Z,37.41
2018-07-30T07:58:21.454Z,35.94
2018-07-30T08:00:50.859Z,38.15
2018-07-30T08:03:20.151Z,39.17
2018-07-30T08:05:49.342Z,39.81
2018-07-30T08:08:18.508Z,40.68
2018-07-30T08:10:48.063Z,39.25
2018-07-30T08:13:17.219Z,38.13
2018-07-30T08:15:46.487Z,38.78
2018-07-30T08:18:15.684Z,38.61
2018-07-30T08:20:45.017Z,40.21
2018-07-30T08:23:14.555Z,38.70
2018-07-30T08:25:43.768Z,37.18
2018-07-30T08:28:12.935Z,39.11
2018-07-30T08:30:42.183Z,40.14
2018-07-30T08:33:11.422Z,41.12
2018-07-30T08:35:40.603Z,41.22
2018-07-30T08:38:09.791Z,39.92
2018-07-30T08:40:39.001Z,40.85
2018-07-30T08:43:08.191Z,38.98
2018-07-30T08:45:37.378Z,40.67
2018-07-30T08:48:06.563Z,41.28
2018-07-30T08:50:36.542Z,43.25
2018-07-30T08:53:05.910Z,43.20
2018-07-30T08:55:35.159Z,40.93
2018-07-30T08:58:04.411Z,40.62
2018-07-30T09:00:33.647Z,41.43
2018-07-30T09:03:02.851Z,42.74
2018-07-30T09:05:32.071Z,38.88
2018-07-30T09:08:01.267Z,41.42
2018-07-30T09:10:30.470Z,42.08
2018-07-30T09:12:59.643Z,42.34
2018-07-30T09:15:28.831Z,43.73
2018-07-30T09:17:58.027Z,43.17
2018-07-30T09:20:27.266Z,40.51
2018-07-30T09:22:56.430Z,39.10
2018-07-30T09:25:25.631Z,39.46
2018-07-30T09:27:54.874Z,41.13
2018-07-30T09:30:24.134Z,41.08
2018-07-30T09:32:53.370Z,42.05
2018-07-30T09:35:22.539Z,41.33
2018-07-30T09:37:51.804Z,39.59
2018-07-30T09:40:21.363Z,40.67
2018-07-30T09:42:50.555Z,43.85
2018-07-30T09:45:19.747Z,44.03
2018-07-30T09:47:48.922Z,43.23
2018-07-30T09:50:18.174Z,44.05
2018-07-30T09:52:48.163Z,45.81
2018-07-30T09:55:17.355Z,42.85
2018-07-30T09:57:46.544Z,41.82
2018-07-30T10:00:20.218Z,41.32
2018-07-30T10:02:49.388Z,42.52
2018-07-30T10:05:18.602Z,42.75
2018-07-30T10:07:48.647Z,42.42
2018-07-30T10:10:17.845Z,43.67
2018-07-30T10:12:46.999Z,41.76
2018-07-30T10:15:16.203Z,37.49
2018-07-30T10:17:46.484Z,36.16
2018-07-30T10:20:16.020Z,35.68
2018-07-30T10:22:45.487Z,34.39
2018-07-30T10:25:15.000Z,34.86
2018-07-30T10:27:44.514Z,36.22
2018-07-30T10:30:13.721Z,36.77
2018-07-30T10:32:43.027Z,36.74
2018-07-30T10:35:12.936Z,35.68
2018-07-30T10:37:42.113Z,36.39
2018-07-30T10:40:11.622Z,35.96
2018-07-30T10:42:40.803Z,35.47
2018-07-30T10:45:10.108Z,34.86
2018-07-30T10:47:39.526Z,35.94
2018-07-30T10:50:09.047Z,35.77
2018-07-30T10:52:38.231Z,35.82
2018-07-30T10:55:07.435Z,35.35
2018-07-30T10:57:36.604Z,35.69
2018-07-30T11:00:06.168Z,37.30
2018-07-30T11:02:35.384Z,38.87
2018-07-30T11:05:04.779Z,41.04
2018-07-30T11:07:34.052Z,38.79
2018-07-30T11:10:03.630Z,36.86
2018-07-30T11:12:32.822Z,38.43
2018-07-30T11:15:02.022Z,39.88
2018-07-30T11:17:31.435Z,38.02
2018-07-30T11:20:00.695Z,36.03
2018-07-30T11:22:29.896Z,35.26
2018-07-30T11:24:59.066Z,34.30
2018-07-30T11:27:28.583Z,34.46
2018-07-30T11:29:57.811Z,34.47
2018-07-30T11:32:27.010Z,34.88
2018-07-30T11:34:56.192Z,35.70
2018-07-30T11:37:25.902Z,38.50
2018-07-30T11:39:55.078Z,38.91
2018-07-30T11:42:24.718Z,38.02
2018-07-30T11:44:54.045Z,38.53
2018-07-30T11:47:23.275Z,37.49
2018-07-30T11:49:52.452Z,41.33
2018-07-30T11:52:21.646Z,40.46
2018-07-30T11:54:50.833Z,41.04
2018-07-30T11:57:20.015Z,43.01
2018-07-30T11:59:49.195Z,42.83
2018-07-30T12:02:18.395Z,38.00
2018-07-30T12:04:47.798Z,41.03
2018-07-30T12:07:17.056Z,36.94
2018-07-30T12:09:47.710Z,37.73
2018-07-30T12:12:17.384Z,35.79
2018-07-30T12:14:46.587Z,36.42
2018-07-30T12:17:15.900Z,36.36
2018-07-30T12:19:45.130Z,34.88
2018-07-30T12:22:14.979Z,33.82
2018-07-30T12:24:44.183Z,34.67
2018-07-30T12:27:13.408Z,36.77
2018-07-30T12:29:42.594Z,37.96
2018-07-30T12:32:11.811Z,36.75
2018-07-30T12:34:40.983Z,37.87
2018-07-30T12:37:10.196Z,35.70
2018-07-30T12:39:39.667Z,34.14
2018-07-30T12:42:08.884Z,34.65
2018-07-30T12:44:38.527Z,33.98
2018-07-30T12:47:07.731Z,34.81
2018-07-30T12:49:36.923Z,35.24
2018-07-30T12:52:06.102Z,34.39
2018-07-30T12:54:35.275Z,35.06
2018-07-30T12:57:04.484Z,36.62
2018-07-30T12:59:33.985Z,37.40
2018-07-30T13:02:03.228Z,37.27
2018-07-30T13:04:32.416Z,37.69
2018-07-30T13:07:02.447Z,37.28
2018-07-30T13:09:31.679Z,35.98
2018-07-30T13:12:00.914Z,33.58
2018-07-30T13:14:30.094Z,33.22
2018-07-30T13:16:59.295Z,33.17
2018-07-30T13:19:28.480Z,33.38
2018-07-30T13:21:57.699Z,33.68
2018-07-30T13:24:26.902Z,34.05
2018-07-30T13:26:56.103Z,34.09
2018-07-30T13:29:25.708Z,34.88
2018-07-30T13:31:54.916Z,35.54
2018-07-30T13:34:24.083Z,33.47
2018-07-30T13:36:53.290Z,33.78
2018-07-30T13:39:22.476Z,32.76
2018-07-30T13:41:51.715Z,33.26
2018-07-30T13:44:20.913Z,34.06
2018-07-30T13:46:50.094Z,36.24
2018-07-30T13:49:19.279Z,38.51
2018-07-30T13:51:48.515Z,39.81
2018-07-30T13:54:17.774Z,40.99
2018-07-30T13:56:46.944Z,37.64
2018-07-30T13:59:16.131Z,39.37
2018-07-30T14:01:45.318Z,39.26
2018-07-30T14:04:14.497Z,38.74
2018-07-30T14:06:43.801Z,38.67
2018-07-30T14:09:13.197Z,36.14
2018-07-30T14:11:42.432Z,36.47
2018-07-30T14:14:11.679Z,37.97
2018-07-30T14:16:41.735Z,38.97
2018-07-30T14:19:11.211Z,37.76
2018-07-30T14:21:40.837Z,36.52
2018-07-30T14:24:10.061Z,36.82
2018-07-30T14:26:39.288Z,35.70
2018-07-30T14:29:08.667Z,35.22
2018-07-30T14:31:37.888Z,34.75
2018-07-30T14:34:07.095Z,33.52
2018-07-30T14:36:36.725Z,33.42
2018-07-30T14:39:09.198Z,33.51
2018-07-30T14:41:38.491Z,33.90
2018-07-30T14:44:07.804Z,33.68
2018-07-30T14:46:37.038Z,33.85
2018-07-30T14:49:06.247Z,33.96
2018-07-30T14:51:35.461Z,33.87
2018-07-30T14:54:04.671Z,33.77
2018-07-30T14:56:33.852Z,33.16
2018-07-30T14:59:03.937Z,33.32
2018-07-30T15:01:33.712Z,33.75
2018-07-30T15:04:02.895Z,34.64
2018-07-30T15:06:32.461Z,34.98
2018-07-30T15:09:02.611Z,35.85
2018-07-30T15:11:32.066Z,35.59
2018-07-30T15:14:01.588Z,36.05
2018-07-30T15:16:31.019Z,36.31
2018-07-30T15:19:00.702Z,37.01
2018-07-30T15:21:29.883Z,36.62
2018-07-30T15:23:59.210Z,35.72
2018-07-30T15:26:28.801Z,36.29
2018-07-30T15:28:58.799Z,36.17
2018-07-30T15:31:28.104Z,35.62
2018-07-30T15:33:57.302Z,35.67
2018-07-30T15:36:26.934Z,35.03
2018-07-30T15:38:56.152Z,34.97
2018-07-30T15:41:25.347Z,35.82
2018-07-30T15:43:54.547Z,35.85
2018-07-30T15:46:23.838Z,35.63
2018-07-30T15:48:53.455Z,34.84
2018-07-30T15:51:22.930Z,35.12
2018-07-30T15:53:52.380Z,34.85
2018-07-30T15:56:21.950Z,34.99
2018-07-30T15:58:51.558Z,34.70
2018-07-30T16:01:20.974Z,34.50
2018-07-30T16:03:51.386Z,35.16
2018-07-30T16:06:20.535Z,35.08
2018-07-30T16:08:50.330Z,34.48
2018-07-30T16:11:19.537Z,33.59
2018-07-30T16:13:48.974Z,33.30
2018-07-30T16:16:18.162Z,32.85
2018-07-30T16:18:47.459Z,32.90
2018-07-30T16:21:17.228Z,33.06
2018-07-30T16:23:46.399Z,32.94
2018-07-30T16:26:16.037Z,32.57
2018-07-30T16:28:45.859Z,32.08
2018-07-30T16:31:15.142Z,32.12
2018-07-30T16:33:44.676Z,32.13
2018-07-30T16:36:14.719Z,32.31
2018-07-30T16:38:43.962Z,32.44
2018-07-30T16:41:13.217Z,32.29
2018-07-30T16:43:43.071Z,32.14
2018-07-30T16:46:12.886Z,32.41
2018-07-30T16:48:42.117Z,32.22
2018-07-30T16:51:11.376Z,32.10
2018-07-30T16:53:41.197Z,31.85
2018-07-30T16:56:10.407Z,31.82
2018-07-30T16:58:39.889Z,31.86
2018-07-30T17:01:09.833Z,32.16
2018-07-30T17:03:39.058Z,31.91
2018-07-30T17:06:08.607Z,31.88
2018-07-30T17:08:38.029Z,31.55
2018-07-30T17:11:07.582Z,31.75
2018-07-30T17:13:37.084Z,32.15
2018-07-30T17:16:06.538Z,32.49
2018-07-30T17:18:35.742Z,32.77
2018-07-30T17:21:05.291Z,32.62
2018-07-30T17:23:34.474Z,32.82
2018-07-30T17:26:03.658Z,32.50
2018-07-30T17:28:33.107Z,32.07
2018-07-30T17:31:02.416Z,31.69
2018-07-30T17:33:31.596Z,32.34
2018-07-30T17:36:00.779Z,31.86
2018-07-30T17:38:30.414Z,31.58
2018-07-30T17:40:59.992Z,31.34
2018-07-30T17:43:29.403Z,31.73
2018-07-30T17:45:59.027Z,31.72
2018-07-30T17:48:28.610Z,31.15
2018-07-30T17:50:58.511Z,31.35
2018-07-30T17:53:28.361Z,31.51
2018-07-30T17:55:57.543Z,31.22
2018-07-30T17:58:27.063Z,31.26
2018-07-30T18:00:56.267Z,31.01
2018-07-30T18:03:25.452Z,30.90
2018-07-30T18:05:55.247Z,30.82
2018-07-30T18:08:24.431Z,30.71
2018-07-30T18:10:53.897Z,30.56
2018-07-30T18:13:23.688Z,30.77
2018-07-30T18:15:53.220Z,30.83
2018-07-30T18:18:22.636Z,30.80
2018-07-30T18:20:52.083Z,30.59
2018-07-30T18:23:21.282Z,30.59
2018-07-30T18:25:50.487Z,30.34
2018-07-30T18:28:19.679Z,30.37
2018-07-30T18:30:49.211Z,30.30
2018-07-30T18:33:19.256Z,30.05
2018-07-30T18:35:48.962Z,30.14
2018-07-30T18:38:18.539Z,29.97
2018-07-30T18:40:47.888Z,29.76
2018-07-30T18:43:17.673Z,29.52
2018-07-30T18:45:46.890Z,29.36
2018-07-30T18:48:16.709Z,28.96
2018-07-30T18:50:45.922Z,28.76
2018-07-30T18:53:16.290Z,28.49
2018-07-30T18:55:45.659Z,28.24
2018-07-30T18:58:14.883Z,27.96
2018-07-30T19:00:44.623Z,27.78
2018-07-30T19:03:14.095Z,27.59
2018-07-30T19:05:44.134Z,27.18
2018-07-30T19:08:13.295Z,26.90
2018-07-30T19:10:42.584Z,26.63
2018-07-30T19:13:12.243Z,26.46
2018-07-30T19:15:42.249Z,26.11
2018-07-30T19:18:11.515Z,25.85
2018-07-30T19:20:41.029Z,25.72
2018-07-30T19:23:10.883Z,25.56
2018-07-30T19:25:40.498Z,25.23
2018-07-30T19:28:09.676Z,25.13
2018-07-30T19:30:38.877Z,24.97
2018-07-30T19:33:08.242Z,24.95
2018-07-30T19:35:37.584Z,24.75
2018-07-30T19:38:06.771Z,24.65
2018-07-30T19:40:35.990Z,24.57
2018-07-30T19:43:05.286Z,24.42
2018-07-30T19:45:34.403Z,24.29
2018-07-30T19:48:03.784Z,24.07
2018-07-30T19:50:32.994Z,23.93
2018-07-30T19:53:02.576Z,23.83
2018-07-30T19:55:31.910Z,23.68
2018-07-30T19:58:01.569Z,23.70
2018-07-30T20:00:30.871Z,23.70
2018-07-30T20:03:00.384Z,23.58
2018-07-30T20:05:30.186Z,23.49
2018-07-30T20:07:59.799Z,23.38
2018-07-30T20:10:28.991Z,23.40
2018-07-30T20:12:58.170Z,23.21
2018-07-30T20:15:27.702Z,22.97
2018-07-30T20:17:56.991Z,22.83
2018-07-30T20:20:26.343Z,22.69
2018-07-30T20:22:55.995Z,22.84
2018-07-30T20:25:25.213Z,22.63
2018-07-30T20:27:54.387Z,22.53
2018-07-30T20:30:23.575Z,22.44
2018-07-30T20:32:53.079Z,22.29
2018-07-30T20:35:22.312Z,22.24
2018-07-30T20:37:51.754Z,22.17
2018-07-30T20:40:21.530Z,22.17
2018-07-30T20:42:51.458Z,22.16
2018-07-30T20:45:20.839Z,22.06
2018-07-30T20:47:50.507Z,22.08
2018-07-30T20:50:20.617Z,22.09
2018-07-30T20:52:50.003Z,22.07
2018-07-30T20:55:19.515Z,22.15
2018-07-30T20:57:49.114Z,21.94
2018-07-30T21:00:19.241Z,21.89
2018-07-30T21:02:48.856Z,21.92
2018-07-30T21:05:18.056Z,21.92
2018-07-30T21:07:48.834Z,21.93
2018-07-30T21:10:18.522Z,22.01
2018-07-30T21:12:47.712Z,21.74
2018-07-30T21:15:17.824Z,21.86
2018-07-30T21:17:47.005Z,21.74
2018-07-30T21:20:16.792Z,21.57
2018-07-30T21:22:46.047Z,21.72
2018-07-30T21:25:15.255Z,21.66
2018-07-30T21:27:44.467Z,21.58
2018-07-30T21:30:13.728Z,21.39
2018-07-30T21:32:42.835Z,21.31
2018-07-30T21:35:13.107Z,21.29
2018-07-30T21:37:42.566Z,21.21
2018-07-30T21:40:11.791Z,21.20
2018-07-30T21:42:42.182Z,21.19
2018-07-30T21:45:11.439Z,21.28
2018-07-30T21:47:40.642Z,21.31
2018-07-30T21:50:09.967Z,21.17
2018-07-30T21:52:39.226Z,21.15
2018-07-30T21:55:08.790Z,21.13
2018-07-30T21:57:38.403Z,21.10
2018-07-30T22:00:10.507Z,21.17
2018-07-30T22:02:40.151Z,21.25
2018-07-30T22:05:15.072Z,20.98
2018-07-30T22:07:45.368Z,20.89
2018-07-30T22:10:14.808Z,20.78
2018-07-30T22:12:44.280Z,20.73
2018-07-30T22:15:13.446Z,20.72
2018-07-30T22:17:42.651Z,20.77
2018-07-30T22:20:12.508Z,20.81
2018-07-30T22:22:42.261Z,20.76
2018-07-30T22:25:11.450Z,20.77
2018-07-30T22:27:42.127Z,20.62
2018-07-30T22:30:12.615Z,20.49
2018-07-30T22:32:42.337Z,20.37
2018-07-30T22:35:11.511Z,20.40
2018-07-30T22:37:41.614Z,20.29
2018-07-30T22:40:12.248Z,20.40
2018-07-30T22:42:42.926Z,20.39
2018-07-30T22:45:12.151Z,20.27
2018-07-30T22:47:41.862Z,20.22
2018-07-30T22:50:12.063Z,20.26
2018-07-30T22:52:41.287Z,20.26
2018-07-30T22:55:11.259Z,20.11
2018-07-30T22:57:41.046Z,19.85
2018-07-30T23:00:10.289Z,19.98
2018-07-30T23:02:40.406Z,20.04
2018-07-30T23:05:09.982Z,19.89
2018-07-30T23:07:39.480Z,19.91
2018-07-30T23:10:09.339Z,19.93
2018-07-30T23:12:38.864Z,20.05
2018-07-30T23:15:08.414Z,20.02
2018-07-30T23:17:37.807Z,20.02
2018-07-30T23:20:07.699Z,20.03
2018-07-30T23:22:36.890Z,20.08
2018-07-30T23:25:06.094Z,19.87
2018-07-30T23:27:35.703Z,19.78
2018-07-30T23:30:05.454Z,19.90
2018-07-30T23:32:34.810Z,19.91
2018-07-30T23:35:04.288Z,19.75
2018-07-30T23:37:33.752Z,19.58
2018-07-30T23:40:03.321Z,19.45
2018-07-30T23:42:32.855Z,19.59
2018-07-30T23:45:02.075Z,19.72
2018-07-30T23:47:32.132Z,19.54
2018-07-30T23:50:01.899Z,19.44
2018-07-30T23:52:31.391Z,19.51
2018-07-30T23:55:00.735Z,19.62
2018-07-30T23:57:30.678Z,19.48
2018-07-30T23:59:59.863Z,19.30
